sensor_id;sensor_type;location;lat;lon;timestamp;temperature;humidity
53926;DHT22;39836;52.754;6.866;2023-02-05T00:02:12;3.10;78.90
53926;DHT22;39836;52.754;6.866;2023-02-05T00:04:38;3.20;78.90
53926;DHT22;39836;52.754;6.866;2023-02-05T00:07:04;3.20;79.00
53926;DHT22;39836;52.754;6.866;2023-02-05T00:09:30;3.20;79.10
53926;DHT22;39836;52.754;6.866;2023-02-05T00:11:57;3.20;79.00
53926;DHT22;39836;52.754;6.866;2023-02-05T00:14:23;3.20;79.10
53926;DHT22;39836;52.754;6.866;2023-02-05T00:16:49;3.20;79.10
53926;DHT22;39836;52.754;6.866;2023-02-05T00:19:15;3.20;79.20
53926;DHT22;39836;52.754;6.866;2023-02-05T00:21:41;3.20;79.10
53926;DHT22;39836;52.754;6.866;2023-02-05T00:24:07;3.20;79.00
53926;DHT22;39836;52.754;6.866;2023-02-05T00:26:33;3.30;79.10
53926;DHT22;39836;52.754;6.866;2023-02-05T00:28:58;3.30;79.00
53926;DHT22;39836;52.754;6.866;2023-02-05T00:31:24;3.30;79.10
53926;DHT22;39836;52.754;6.866;2023-02-05T00:33:50;3.40;79.20
53926;DHT22;39836;52.754;6.866;2023-02-05T00:36:18;3.30;79.00
53926;DHT22;39836;52.754;6.866;2023-02-05T00:38:45;3.40;78.90
53926;DHT22;39836;52.754;6.866;2023-02-05T00:41:11;3.30;79.10
53926;DHT22;39836;52.754;6.866;2023-02-05T00:43:40;3.30;79.20
53926;DHT22;39836;52.754;6.866;2023-02-05T00:46:07;3.30;79.30
53926;DHT22;39836;52.754;6.866;2023-02-05T00:48:33;3.40;79.30
53926;DHT22;39836;52.754;6.866;2023-02-05T00:50:59;3.40;79.20
53926;DHT22;39836;52.754;6.866;2023-02-05T00:53:25;3.30;79.20
53926;DHT22;39836;52.754;6.866;2023-02-05T00:55:51;3.30;79.20
53926;DHT22;39836;52.754;6.866;2023-02-05T00:58:17;3.30;79.30
53926;DHT22;39836;52.754;6.866;2023-02-05T01:00:43;3.40;79.40
53926;DHT22;39836;52.754;6.866;2023-02-05T01:03:09;3.30;79.40
53926;DHT22;39836;52.754;6.866;2023-02-05T01:05:36;3.30;79.40
53926;DHT22;39836;52.754;6.866;2023-02-05T01:08:03;3.40;79.50
53926;DHT22;39836;52.754;6.866;2023-02-05T01:10:30;3.40;79.50
53926;DHT22;39836;52.754;6.866;2023-02-05T01:12:55;3.40;79.60
53926;DHT22;39836;52.754;6.866;2023-02-05T01:15:21;3.40;79.60
53926;DHT22;39836;52.754;6.866;2023-02-05T01:17:47;3.40;79.60
53926;DHT22;39836;52.754;6.866;2023-02-05T01:20:13;3.40;79.60
53926;DHT22;39836;52.754;6.866;2023-02-05T01:22:40;3.50;79.70
53926;DHT22;39836;52.754;6.866;2023-02-05T01:25:07;3.40;79.70
53926;DHT22;39836;52.754;6.866;2023-02-05T01:27:33;3.50;79.80
53926;DHT22;39836;52.754;6.866;2023-02-05T01:29:59;3.40;79.60
53926;DHT22;39836;52.754;6.866;2023-02-05T01:32:27;3.50;79.60
53926;DHT22;39836;52.754;6.866;2023-02-05T01:34:53;3.50;79.60
53926;DHT22;39836;52.754;6.866;2023-02-05T01:37:18;3.50;79.50
53926;DHT22;39836;52.754;6.866;2023-02-05T01:39:44;3.60;79.60
53926;DHT22;39836;52.754;6.866;2023-02-05T01:42:25;3.50;79.50
53926;DHT22;39836;52.754;6.866;2023-02-05T01:47:51;3.60;80.00
53926;DHT22;39836;52.754;6.866;2023-02-05T01:50:33;3.60;80.10
53926;DHT22;39836;52.754;6.866;2023-02-05T01:53:05;3.50;80.30
53926;DHT22;39836;52.754;6.866;2023-02-05T01:55:31;3.70;80.30
53926;DHT22;39836;52.754;6.866;2023-02-05T01:57:59;3.60;80.20
53926;DHT22;39836;52.754;6.866;2023-02-05T02:00:25;3.60;80.00
53926;DHT22;39836;52.754;6.866;2023-02-05T02:02:52;3.70;79.90
53926;DHT22;39836;52.754;6.866;2023-02-05T02:05:18;3.70;79.90
53926;DHT22;39836;52.754;6.866;2023-02-05T02:07:43;3.70;79.90
53926;DHT22;39836;52.754;6.866;2023-02-05T02:10:12;3.70;79.90
53926;DHT22;39836;52.754;6.866;2023-02-05T02:12:40;3.80;80.00
53926;DHT22;39836;52.754;6.866;2023-02-05T02:15:11;3.80;79.90
53926;DHT22;39836;52.754;6.866;2023-02-05T02:17:40;3.80;79.90
53926;DHT22;39836;52.754;6.866;2023-02-05T02:20:09;3.80;79.80
53926;DHT22;39836;52.754;6.866;2023-02-05T02:25:13;3.90;80.00
53926;DHT22;39836;52.754;6.866;2023-02-05T02:31:10;3.90;80.00
53926;DHT22;39836;52.754;6.866;2023-02-05T02:33:54;4.20;80.20
53926;DHT22;39836;52.754;6.866;2023-02-05T02:36:42;3.90;80.10
53926;DHT22;39836;52.754;6.866;2023-02-05T02:39:25;3.90;80.10
53926;DHT22;39836;52.754;6.866;2023-02-05T02:42:00;4.00;80.10
53926;DHT22;39836;52.754;6.866;2023-02-05T02:45:04;3.90;80.00
53926;DHT22;39836;52.754;6.866;2023-02-05T02:47:31;4.00;80.10
53926;DHT22;39836;52.754;6.866;2023-02-05T02:50:13;4.00;80.20
53926;DHT22;39836;52.754;6.866;2023-02-05T02:52:44;4.00;80.30
53926;DHT22;39836;52.754;6.866;2023-02-05T02:55:12;4.00;80.70
53926;DHT22;39836;52.754;6.866;2023-02-05T02:57:40;3.90;81.20
53926;DHT22;39836;52.754;6.866;2023-02-05T03:00:21;3.90;81.40
53926;DHT22;39836;52.754;6.866;2023-02-05T03:02:53;3.90;81.60
53926;DHT22;39836;52.754;6.866;2023-02-05T03:05:21;3.90;81.60
53926;DHT22;39836;52.754;6.866;2023-02-05T03:07:54;3.90;81.50
53926;DHT22;39836;52.754;6.866;2023-02-05T03:10:37;4.00;81.50
53926;DHT22;39836;52.754;6.866;2023-02-05T03:13:11;4.00;81.30
53926;DHT22;39836;52.754;6.866;2023-02-05T03:15:42;4.00;81.20
53926;DHT22;39836;52.754;6.866;2023-02-05T03:18:08;4.00;81.00
53926;DHT22;39836;52.754;6.866;2023-02-05T03:20:40;4.00;81.10
53926;DHT22;39836;52.754;6.866;2023-02-05T03:23:07;4.00;80.90
53926;DHT22;39836;52.754;6.866;2023-02-05T03:25:33;4.00;80.90
53926;DHT22;39836;52.754;6.866;2023-02-05T03:27:58;4.00;80.80
53926;DHT22;39836;52.754;6.866;2023-02-05T03:30:29;4.00;80.80
53926;DHT22;39836;52.754;6.866;2023-02-05T03:33:12;4.10;80.70
53926;DHT22;39836;52.754;6.866;2023-02-05T03:35:59;4.10;80.70
53926;DHT22;39836;52.754;6.866;2023-02-05T03:39:06;4.10;80.70
53926;DHT22;39836;52.754;6.866;2023-02-05T03:42:04;4.10;80.80
53926;DHT22;39836;52.754;6.866;2023-02-05T03:50:30;4.10;80.90
53926;DHT22;39836;52.754;6.866;2023-02-05T03:55:58;4.20;80.90
53926;DHT22;39836;52.754;6.866;2023-02-05T03:58:44;4.20;80.90
53926;DHT22;39836;52.754;6.866;2023-02-05T04:01:12;4.20;80.90
53926;DHT22;39836;52.754;6.866;2023-02-05T04:03:38;4.20;80.90
53926;DHT22;39836;52.754;6.866;2023-02-05T04:06:04;4.30;80.90
53926;DHT22;39836;52.754;6.866;2023-02-05T04:08:31;4.30;81.00
53926;DHT22;39836;52.754;6.866;2023-02-05T04:10:56;4.30;81.00
53926;DHT22;39836;52.754;6.866;2023-02-05T04:13:22;4.30;81.10
53926;DHT22;39836;52.754;6.866;2023-02-05T04:15:48;4.40;81.40
53926;DHT22;39836;52.754;6.866;2023-02-05T04:18:15;4.50;81.40
53926;DHT22;39836;52.754;6.866;2023-02-05T04:20:40;4.60;81.50
53926;DHT22;39836;52.754;6.866;2023-02-05T04:23:06;4.50;81.30
53926;DHT22;39836;52.754;6.866;2023-02-05T04:25:32;4.60;81.40
53926;DHT22;39836;52.754;6.866;2023-02-05T04:27:57;4.60;81.30
53926;DHT22;39836;52.754;6.866;2023-02-05T04:30:23;4.70;81.30
53926;DHT22;39836;52.754;6.866;2023-02-05T04:32:49;4.70;81.40
53926;DHT22;39836;52.754;6.866;2023-02-05T04:35:14;4.80;81.40
53926;DHT22;39836;52.754;6.866;2023-02-05T04:37:40;4.80;81.40
53926;DHT22;39836;52.754;6.866;2023-02-05T04:40:07;4.80;81.40
53926;DHT22;39836;52.754;6.866;2023-02-05T04:42:32;4.80;81.50
53926;DHT22;39836;52.754;6.866;2023-02-05T04:44:58;4.80;81.80
53926;DHT22;39836;52.754;6.866;2023-02-05T04:47:24;4.80;81.70
53926;DHT22;39836;52.754;6.866;2023-02-05T04:49:50;4.90;81.60
53926;DHT22;39836;52.754;6.866;2023-02-05T04:52:16;4.80;81.50
53926;DHT22;39836;52.754;6.866;2023-02-05T04:54:41;4.80;81.50
53926;DHT22;39836;52.754;6.866;2023-02-05T04:57:07;4.80;81.50
53926;DHT22;39836;52.754;6.866;2023-02-05T04:59:33;4.90;81.50
53926;DHT22;39836;52.754;6.866;2023-02-05T05:01:59;4.80;81.50
53926;DHT22;39836;52.754;6.866;2023-02-05T05:04:25;4.90;81.50
53926;DHT22;39836;52.754;6.866;2023-02-05T05:06:51;4.70;81.50
53926;DHT22;39836;52.754;6.866;2023-02-05T05:09:16;4.80;81.50
53926;DHT22;39836;52.754;6.866;2023-02-05T05:11:45;4.70;81.50
53926;DHT22;39836;52.754;6.866;2023-02-05T05:14:11;4.70;81.70
53926;DHT22;39836;52.754;6.866;2023-02-05T05:16:36;4.70;81.70
53926;DHT22;39836;52.754;6.866;2023-02-05T05:19:02;4.70;81.80
53926;DHT22;39836;52.754;6.866;2023-02-05T05:21:28;4.70;81.80
53926;DHT22;39836;52.754;6.866;2023-02-05T05:23:53;4.70;81.80
53926;DHT22;39836;52.754;6.866;2023-02-05T05:26:19;4.70;81.80
53926;DHT22;39836;52.754;6.866;2023-02-05T05:28:44;4.70;81.90
53926;DHT22;39836;52.754;6.866;2023-02-05T05:31:14;4.70;81.80
53926;DHT22;39836;52.754;6.866;2023-02-05T05:33:46;4.80;81.80
53926;DHT22;39836;52.754;6.866;2023-02-05T05:36:12;4.80;81.80
53926;DHT22;39836;52.754;6.866;2023-02-05T05:38:38;4.80;81.90
53926;DHT22;39836;52.754;6.866;2023-02-05T05:41:04;4.80;81.80
53926;DHT22;39836;52.754;6.866;2023-02-05T05:43:51;4.80;81.90
53926;DHT22;39836;52.754;6.866;2023-02-05T05:46:20;4.90;81.90
53926;DHT22;39836;52.754;6.866;2023-02-05T05:48:57;4.90;82.00
53926;DHT22;39836;52.754;6.866;2023-02-05T05:51:25;4.90;82.00
53926;DHT22;39836;52.754;6.866;2023-02-05T05:53:51;4.90;82.10
53926;DHT22;39836;52.754;6.866;2023-02-05T05:56:17;4.90;82.30
53926;DHT22;39836;52.754;6.866;2023-02-05T05:58:44;5.00;82.40
53926;DHT22;39836;52.754;6.866;2023-02-05T06:01:11;5.00;82.30
53926;DHT22;39836;52.754;6.866;2023-02-05T06:03:37;5.00;82.40
53926;DHT22;39836;52.754;6.866;2023-02-05T06:06:05;5.10;82.50
53926;DHT22;39836;52.754;6.866;2023-02-05T06:08:32;5.20;82.40
53926;DHT22;39836;52.754;6.866;2023-02-05T06:10:58;5.20;82.40
53926;DHT22;39836;52.754;6.866;2023-02-05T06:13:24;5.30;82.40
53926;DHT22;39836;52.754;6.866;2023-02-05T06:15:49;5.30;82.40
53926;DHT22;39836;52.754;6.866;2023-02-05T06:18:16;5.30;82.40
53926;DHT22;39836;52.754;6.866;2023-02-05T06:20:41;5.30;82.40
53926;DHT22;39836;52.754;6.866;2023-02-05T06:23:07;5.40;82.50
53926;DHT22;39836;52.754;6.866;2023-02-05T06:25:33;5.40;82.60
53926;DHT22;39836;52.754;6.866;2023-02-05T06:27:59;5.50;82.70
53926;DHT22;39836;52.754;6.866;2023-02-05T06:30:24;5.50;82.40
53926;DHT22;39836;52.754;6.866;2023-02-05T06:32:50;5.60;82.50
53926;DHT22;39836;52.754;6.866;2023-02-05T06:35:16;5.70;82.70
53926;DHT22;39836;52.754;6.866;2023-02-05T06:37:41;5.80;82.70
53926;DHT22;39836;52.754;6.866;2023-02-05T06:40:08;5.80;82.60
53926;DHT22;39836;52.754;6.866;2023-02-05T06:42:34;5.80;82.60
53926;DHT22;39836;52.754;6.866;2023-02-05T06:45:00;5.80;82.60
53926;DHT22;39836;52.754;6.866;2023-02-05T06:47:26;5.70;82.60
53926;DHT22;39836;52.754;6.866;2023-02-05T06:49:51;5.70;82.60
53926;DHT22;39836;52.754;6.866;2023-02-05T06:52:17;5.70;82.60
53926;DHT22;39836;52.754;6.866;2023-02-05T06:54:43;5.70;82.70
53926;DHT22;39836;52.754;6.866;2023-02-05T06:57:09;5.70;82.60
53926;DHT22;39836;52.754;6.866;2023-02-05T06:59:35;5.70;82.60
53926;DHT22;39836;52.754;6.866;2023-02-05T07:02:01;5.70;82.50
53926;DHT22;39836;52.754;6.866;2023-02-05T07:04:27;5.60;82.50
53926;DHT22;39836;52.754;6.866;2023-02-05T07:06:56;5.60;82.40
53926;DHT22;39836;52.754;6.866;2023-02-05T07:09:23;5.60;82.30
53926;DHT22;39836;52.754;6.866;2023-02-05T07:11:49;5.60;82.20
53926;DHT22;39836;52.754;6.866;2023-02-05T07:14:15;5.50;82.10
53926;DHT22;39836;52.754;6.866;2023-02-05T07:16:41;5.50;82.10
53926;DHT22;39836;52.754;6.866;2023-02-05T07:19:07;5.50;82.00
53926;DHT22;39836;52.754;6.866;2023-02-05T07:21:32;5.50;82.10
53926;DHT22;39836;52.754;6.866;2023-02-05T07:23:58;5.50;82.00
53926;DHT22;39836;52.754;6.866;2023-02-05T07:26:24;5.50;82.00
53926;DHT22;39836;52.754;6.866;2023-02-05T07:28:50;5.50;82.00
53926;DHT22;39836;52.754;6.866;2023-02-05T07:31:17;5.50;82.10
53926;DHT22;39836;52.754;6.866;2023-02-05T07:33:43;5.50;82.10
53926;DHT22;39836;52.754;6.866;2023-02-05T07:36:10;5.50;82.20
53926;DHT22;39836;52.754;6.866;2023-02-05T07:38:38;5.50;82.30
53926;DHT22;39836;52.754;6.866;2023-02-05T07:41:08;5.40;82.30
53926;DHT22;39836;52.754;6.866;2023-02-05T07:43:34;5.50;82.50
53926;DHT22;39836;52.754;6.866;2023-02-05T07:46:02;5.50;82.50
53926;DHT22;39836;52.754;6.866;2023-02-05T07:48:29;5.50;82.60
53926;DHT22;39836;52.754;6.866;2023-02-05T07:50:54;5.50;82.60
53926;DHT22;39836;52.754;6.866;2023-02-05T07:53:20;5.50;82.60
53926;DHT22;39836;52.754;6.866;2023-02-05T07:55:46;5.40;82.70
53926;DHT22;39836;52.754;6.866;2023-02-05T07:58:12;5.50;82.80
53926;DHT22;39836;52.754;6.866;2023-02-05T08:00:38;5.50;82.90
53926;DHT22;39836;52.754;6.866;2023-02-05T08:03:05;5.50;82.90
53926;DHT22;39836;52.754;6.866;2023-02-05T08:05:31;5.60;83.00
53926;DHT22;39836;52.754;6.866;2023-02-05T08:07:56;5.50;83.00
53926;DHT22;39836;52.754;6.866;2023-02-05T08:10:22;5.50;83.00
53926;DHT22;39836;52.754;6.866;2023-02-05T08:12:48;5.50;83.10
53926;DHT22;39836;52.754;6.866;2023-02-05T08:15:13;5.50;83.10
53926;DHT22;39836;52.754;6.866;2023-02-05T08:17:39;5.50;83.10
53926;DHT22;39836;52.754;6.866;2023-02-05T08:20:05;5.50;83.20
53926;DHT22;39836;52.754;6.866;2023-02-05T08:22:34;5.50;83.20
53926;DHT22;39836;52.754;6.866;2023-02-05T08:25:00;5.50;83.20
53926;DHT22;39836;52.754;6.866;2023-02-05T08:27:26;5.50;83.20
53926;DHT22;39836;52.754;6.866;2023-02-05T08:29:52;5.50;83.30
53926;DHT22;39836;52.754;6.866;2023-02-05T08:32:17;5.60;83.30
53926;DHT22;39836;52.754;6.866;2023-02-05T08:34:43;5.60;83.20
53926;DHT22;39836;52.754;6.866;2023-02-05T08:37:09;5.70;83.00
53926;DHT22;39836;52.754;6.866;2023-02-05T08:39:35;5.60;83.00
53926;DHT22;39836;52.754;6.866;2023-02-05T08:42:02;5.70;83.00
53926;DHT22;39836;52.754;6.866;2023-02-05T08:44:28;5.70;82.90
53926;DHT22;39836;52.754;6.866;2023-02-05T08:46:54;5.70;82.90
53926;DHT22;39836;52.754;6.866;2023-02-05T08:49:20;5.80;82.80
53926;DHT22;39836;52.754;6.866;2023-02-05T08:51:46;5.80;82.50
53926;DHT22;39836;52.754;6.866;2023-02-05T08:54:11;5.90;82.40
53926;DHT22;39836;52.754;6.866;2023-02-05T08:56:40;5.90;82.20
53926;DHT22;39836;52.754;6.866;2023-02-05T08:59:06;5.90;81.80
53926;DHT22;39836;52.754;6.866;2023-02-05T09:01:33;6.00;81.60
53926;DHT22;39836;52.754;6.866;2023-02-05T09:04:02;6.00;81.50
53926;DHT22;39836;52.754;6.866;2023-02-05T09:06:29;6.10;81.40
53926;DHT22;39836;52.754;6.866;2023-02-05T09:08:55;6.10;81.30
53926;DHT22;39836;52.754;6.866;2023-02-05T09:11:22;6.10;81.20
53926;DHT22;39836;52.754;6.866;2023-02-05T09:13:48;6.20;81.00
53926;DHT22;39836;52.754;6.866;2023-02-05T09:16:14;6.20;81.00
53926;DHT22;39836;52.754;6.866;2023-02-05T09:18:39;6.30;80.80
53926;DHT22;39836;52.754;6.866;2023-02-05T09:21:07;6.40;80.70
53926;DHT22;39836;52.754;6.866;2023-02-05T09:23:33;6.50;80.40
53926;DHT22;39836;52.754;6.866;2023-02-05T09:25:59;6.50;80.40
53926;DHT22;39836;52.754;6.866;2023-02-05T09:28:25;6.60;80.10
53926;DHT22;39836;52.754;6.866;2023-02-05T09:30:51;6.60;80.20
53926;DHT22;39836;52.754;6.866;2023-02-05T09:33:17;6.60;79.90
53926;DHT22;39836;52.754;6.866;2023-02-05T09:35:43;6.60;80.10
53926;DHT22;39836;52.754;6.866;2023-02-05T09:38:12;6.70;80.20
53926;DHT22;39836;52.754;6.866;2023-02-05T09:40:59;6.70;80.00
53926;DHT22;39836;52.754;6.866;2023-02-05T09:48:55;6.80;79.40
53926;DHT22;39836;52.754;6.866;2023-02-05T09:51:40;6.80;79.50
53926;DHT22;39836;52.754;6.866;2023-02-05T09:54:23;6.80;79.40
53926;DHT22;39836;52.754;6.866;2023-02-05T09:56:52;6.90;79.40
53926;DHT22;39836;52.754;6.866;2023-02-05T09:59:23;6.80;79.20
53926;DHT22;39836;52.754;6.866;2023-02-05T10:01:58;6.90;79.30
53926;DHT22;39836;52.754;6.866;2023-02-05T10:04:25;6.90;79.10
53926;DHT22;39836;52.754;6.866;2023-02-05T10:07:55;6.90;79.00
53926;DHT22;39836;52.754;6.866;2023-02-05T10:10:02;7.00;78.90
53926;DHT22;39836;52.754;6.866;2023-02-05T10:12:35;6.90;79.00
53926;DHT22;39836;52.754;6.866;2023-02-05T10:15:32;7.00;79.00
53926;DHT22;39836;52.754;6.866;2023-02-05T10:18:12;7.00;78.80
53926;DHT22;39836;52.754;6.866;2023-02-05T10:26:11;6.90;78.70
53926;DHT22;39836;52.754;6.866;2023-02-05T10:29:03;6.90;78.70
53926;DHT22;39836;52.754;6.866;2023-02-05T10:37:19;7.00;78.60
53926;DHT22;39836;52.754;6.866;2023-02-05T10:39:46;7.10;78.40
53926;DHT22;39836;52.754;6.866;2023-02-05T10:42:30;7.20;78.00
53926;DHT22;39836;52.754;6.866;2023-02-05T10:45:17;7.40;77.90
53926;DHT22;39836;52.754;6.866;2023-02-05T10:50:56;7.50;77.70
53926;DHT22;39836;52.754;6.866;2023-02-05T10:53:24;7.50;77.80
53926;DHT22;39836;52.754;6.866;2023-02-05T10:55:50;7.60;77.70
53926;DHT22;39836;52.754;6.866;2023-02-05T10:58:47;7.60;77.70
53926;DHT22;39836;52.754;6.866;2023-02-05T11:03:52;7.80;77.90
53926;DHT22;39836;52.754;6.866;2023-02-05T11:06:20;7.80;77.80
53926;DHT22;39836;52.754;6.866;2023-02-05T11:08:46;7.90;78.00
53926;DHT22;39836;52.754;6.866;2023-02-05T11:11:25;8.00;77.90
53926;DHT22;39836;52.754;6.866;2023-02-05T11:13:58;8.00;77.90
53926;DHT22;39836;52.754;6.866;2023-02-05T11:19:02;7.80;77.90
53926;DHT22;39836;52.754;6.866;2023-02-05T11:29:36;7.80;77.50
53926;DHT22;39836;52.754;6.866;2023-02-05T11:32:02;7.80;77.40
53926;DHT22;39836;52.754;6.866;2023-02-05T11:34:28;7.70;77.50
53926;DHT22;39836;52.754;6.866;2023-02-05T11:36:55;7.60;77.40
53926;DHT22;39836;52.754;6.866;2023-02-05T11:39:31;7.60;77.60
53926;DHT22;39836;52.754;6.866;2023-02-05T11:42:20;7.70;77.80
53926;DHT22;39836;52.754;6.866;2023-02-05T11:44:57;7.80;76.80
53926;DHT22;39836;52.754;6.866;2023-02-05T11:47:44;7.80;76.00
53926;DHT22;39836;52.754;6.866;2023-02-05T11:50:23;7.80;76.10
53926;DHT22;39836;52.754;6.866;2023-02-05T11:52:49;7.90;76.00
53926;DHT22;39836;52.754;6.866;2023-02-05T11:55:27;8.00;76.10
53926;DHT22;39836;52.754;6.866;2023-02-05T11:58:03;8.00;76.20
53926;DHT22;39836;52.754;6.866;2023-02-05T12:00:29;8.00;76.40
53926;DHT22;39836;52.754;6.866;2023-02-05T12:03:15;8.00;76.00
53926;DHT22;39836;52.754;6.866;2023-02-05T12:05:49;8.00;75.90
53926;DHT22;39836;52.754;6.866;2023-02-05T12:08:29;7.90;76.10
53926;DHT22;39836;52.754;6.866;2023-02-05T12:14:12;7.90;76.30
53926;DHT22;39836;52.754;6.866;2023-02-05T12:16:59;7.90;76.10
53926;DHT22;39836;52.754;6.866;2023-02-05T12:19:36;7.90;76.40
53926;DHT22;39836;52.754;6.866;2023-02-05T12:36:17;8.10;76.20
53926;DHT22;39836;52.754;6.866;2023-02-05T12:44:38;8.20;76.10
53926;DHT22;39836;52.754;6.866;2023-02-05T12:47:28;8.20;75.70
53926;DHT22;39836;52.754;6.866;2023-02-05T12:55:47;8.50;75.30
53926;DHT22;39836;52.754;6.866;2023-02-05T12:58:17;8.50;74.90
53926;DHT22;39836;52.754;6.866;2023-02-05T13:00:52;9.20;74.90
53926;DHT22;39836;52.754;6.866;2023-02-05T13:03:50;8.50;75.00
53926;DHT22;39836;52.754;6.866;2023-02-05T13:09:18;8.50;74.30
53926;DHT22;39836;52.754;6.866;2023-02-05T13:14:28;8.70;74.10
53926;DHT22;39836;52.754;6.866;2023-02-05T13:17:05;8.70;74.00
53926;DHT22;39836;52.754;6.866;2023-02-05T13:19:32;8.60;74.10
53926;DHT22;39836;52.754;6.866;2023-02-05T13:22:06;8.50;74.00
53926;DHT22;39836;52.754;6.866;2023-02-05T13:25:12;8.50;74.30
53926;DHT22;39836;52.754;6.866;2023-02-05T13:28:24;8.50;74.40
53926;DHT22;39836;52.754;6.866;2023-02-05T13:31:35;8.50;74.50
53926;DHT22;39836;52.754;6.866;2023-02-05T13:34:06;8.50;74.10
53926;DHT22;39836;52.754;6.866;2023-02-05T13:58:47;8.40;73.90
53926;DHT22;39836;52.754;6.866;2023-02-05T14:01:40;8.40;73.90
53926;DHT22;39836;52.754;6.866;2023-02-05T14:04:07;8.60;73.80
53926;DHT22;39836;52.754;6.866;2023-02-05T14:06:42;8.90;73.70
53926;DHT22;39836;52.754;6.866;2023-02-05T14:09:27;9.20;73.50
53926;DHT22;39836;52.754;6.866;2023-02-05T14:11:57;9.30;73.00
53926;DHT22;39836;52.754;6.866;2023-02-05T14:14:27;9.30;72.80
53926;DHT22;39836;52.754;6.866;2023-02-05T14:16:58;9.10;72.50
53926;DHT22;39836;52.754;6.866;2023-02-05T14:19:48;8.90;72.70
53926;DHT22;39836;52.754;6.866;2023-02-05T14:22:37;8.60;72.80
53926;DHT22;39836;52.754;6.866;2023-02-05T14:30:36;8.90;72.20
53926;DHT22;39836;52.754;6.866;2023-02-05T14:33:03;9.30;71.90
53926;DHT22;39836;52.754;6.866;2023-02-05T14:35:35;9.60;71.60
53926;DHT22;39836;52.754;6.866;2023-02-05T14:43:33;10.40;71.30
53926;DHT22;39836;52.754;6.866;2023-02-05T14:46:18;10.50;70.70
53926;DHT22;39836;52.754;6.866;2023-02-05T14:48:46;10.30;70.90
53926;DHT22;39836;52.754;6.866;2023-02-05T14:51:36;10.10;70.70
53926;DHT22;39836;52.754;6.866;2023-02-05T14:54:15;9.60;70.90
53926;DHT22;39836;52.754;6.866;2023-02-05T14:56:46;9.30;71.20
53926;DHT22;39836;52.754;6.866;2023-02-05T14:59:26;9.00;71.80
53926;DHT22;39836;52.754;6.866;2023-02-05T15:01:55;8.70;72.10
53926;DHT22;39836;52.754;6.866;2023-02-05T15:04:45;8.50;72.50
53926;DHT22;39836;52.754;6.866;2023-02-05T15:07:19;8.50;72.40
53926;DHT22;39836;52.754;6.866;2023-02-05T15:09:57;8.40;72.40
53926;DHT22;39836;52.754;6.866;2023-02-05T15:13:10;8.30;72.60
53926;DHT22;39836;52.754;6.866;2023-02-05T15:15:36;8.20;72.90
53926;DHT22;39836;52.754;6.866;2023-02-05T15:18:28;8.20;73.00
53926;DHT22;39836;52.754;6.866;2023-02-05T15:20:55;8.20;73.20
53926;DHT22;39836;52.754;6.866;2023-02-05T15:23:24;8.20;73.10
53926;DHT22;39836;52.754;6.866;2023-02-05T15:25:58;8.10;73.00
53926;DHT22;39836;52.754;6.866;2023-02-05T15:28:41;8.00;73.10
53926;DHT22;39836;52.754;6.866;2023-02-05T15:31:25;8.00;73.30
53926;DHT22;39836;52.754;6.866;2023-02-05T15:34:42;7.90;73.30
53926;DHT22;39836;52.754;6.866;2023-02-05T15:36:49;7.80;73.60
53926;DHT22;39836;52.754;6.866;2023-02-05T15:42:16;7.80;73.80
53926;DHT22;39836;52.754;6.866;2023-02-05T15:44:42;7.70;73.90
53926;DHT22;39836;52.754;6.866;2023-02-05T15:47:18;7.70;74.00
53926;DHT22;39836;52.754;6.866;2023-02-05T15:49:47;7.60;74.10
53926;DHT22;39836;52.754;6.866;2023-02-05T15:52:23;7.60;74.30
53926;DHT22;39836;52.754;6.866;2023-02-05T15:54:52;7.50;74.40
53926;DHT22;39836;52.754;6.866;2023-02-05T15:57:24;7.40;74.20
53926;DHT22;39836;52.754;6.866;2023-02-05T15:59:52;7.40;74.00
53926;DHT22;39836;52.754;6.866;2023-02-05T16:02:24;7.40;74.10
53926;DHT22;39836;52.754;6.866;2023-02-05T16:05:15;7.30;74.30
53926;DHT22;39836;52.754;6.866;2023-02-05T16:07:46;7.10;74.40
53926;DHT22;39836;52.754;6.866;2023-02-05T16:10:25;7.10;74.50
53926;DHT22;39836;52.754;6.866;2023-02-05T16:13:03;7.00;74.70
53926;DHT22;39836;52.754;6.866;2023-02-05T16:15:46;6.90;74.70
53926;DHT22;39836;52.754;6.866;2023-02-05T16:18:40;6.90;74.70
53926;DHT22;39836;52.754;6.866;2023-02-05T16:23:52;6.70;74.70
53926;DHT22;39836;52.754;6.866;2023-02-05T16:26:43;6.70;74.90
53926;DHT22;39836;52.754;6.866;2023-02-05T16:29:27;6.70;74.90
53926;DHT22;39836;52.754;6.866;2023-02-05T16:32:04;6.60;75.00
53926;DHT22;39836;52.754;6.866;2023-02-05T16:34:31;6.60;75.10
53926;DHT22;39836;52.754;6.866;2023-02-05T16:37:01;6.60;75.10
53926;DHT22;39836;52.754;6.866;2023-02-05T16:39:33;6.50;75.10
53926;DHT22;39836;52.754;6.866;2023-02-05T16:42:06;6.50;75.30
53926;DHT22;39836;52.754;6.866;2023-02-05T16:44:38;6.40;75.30
53926;DHT22;39836;52.754;6.866;2023-02-05T16:47:18;6.40;75.40
53926;DHT22;39836;52.754;6.866;2023-02-05T16:49:46;6.30;75.50
53926;DHT22;39836;52.754;6.866;2023-02-05T16:52:33;6.30;75.50
53926;DHT22;39836;52.754;6.866;2023-02-05T16:57:53;6.20;75.70
53926;DHT22;39836;52.754;6.866;2023-02-05T17:00:24;6.10;75.80
53926;DHT22;39836;52.754;6.866;2023-02-05T17:02:54;6.10;75.90
53926;DHT22;39836;52.754;6.866;2023-02-05T17:05:30;6.10;75.90
53926;DHT22;39836;52.754;6.866;2023-02-05T17:08:03;6.00;76.00
53926;DHT22;39836;52.754;6.866;2023-02-05T17:10:30;6.00;76.00
53926;DHT22;39836;52.754;6.866;2023-02-05T17:13:00;5.90;76.10
53926;DHT22;39836;52.754;6.866;2023-02-05T17:15:32;6.00;76.20
53926;DHT22;39836;52.754;6.866;2023-02-05T17:18:17;5.90;76.30
53926;DHT22;39836;52.754;6.866;2023-02-05T17:20:43;5.90;76.30
53926;DHT22;39836;52.754;6.866;2023-02-05T17:23:13;5.80;76.40
53926;DHT22;39836;52.754;6.866;2023-02-05T17:28:20;5.80;76.50
53926;DHT22;39836;52.754;6.866;2023-02-05T17:30:47;5.80;76.50
53926;DHT22;39836;52.754;6.866;2023-02-05T17:33:21;5.80;76.60
53926;DHT22;39836;52.754;6.866;2023-02-05T17:35:47;5.80;76.60
53926;DHT22;39836;52.754;6.866;2023-02-05T17:38:13;5.70;76.60
53926;DHT22;39836;52.754;6.866;2023-02-05T17:40:39;5.70;76.60
53926;DHT22;39836;52.754;6.866;2023-02-05T17:43:05;5.70;76.70
53926;DHT22;39836;52.754;6.866;2023-02-05T17:45:34;5.70;76.70
53926;DHT22;39836;52.754;6.866;2023-02-05T17:48:00;5.70;76.70
53926;DHT22;39836;52.754;6.866;2023-02-05T17:50:26;5.60;76.70
53926;DHT22;39836;52.754;6.866;2023-02-05T17:52:52;5.60;76.80
53926;DHT22;39836;52.754;6.866;2023-02-05T17:55:20;5.60;76.70
53926;DHT22;39836;52.754;6.866;2023-02-05T17:57:46;5.50;76.80
53926;DHT22;39836;52.754;6.866;2023-02-05T18:00:21;5.50;76.80
53926;DHT22;39836;52.754;6.866;2023-02-05T18:02:47;5.50;76.80
53926;DHT22;39836;52.754;6.866;2023-02-05T18:05:13;5.50;76.80
53926;DHT22;39836;52.754;6.866;2023-02-05T18:07:55;5.50;76.90
53926;DHT22;39836;52.754;6.866;2023-02-05T18:10:29;5.50;76.90
53926;DHT22;39836;52.754;6.866;2023-02-05T18:12:57;5.40;76.90
53926;DHT22;39836;52.754;6.866;2023-02-05T18:15:24;5.30;76.90
53926;DHT22;39836;52.754;6.866;2023-02-05T18:17:50;5.30;76.90
53926;DHT22;39836;52.754;6.866;2023-02-05T18:20:17;5.30;77.00